Time;durP1;ratioP1;P1;durP2;ratioP2;P2;SDS_P1;SDS_P2;PMS_P1;PMS_P2;Temp;Humidity;BMP_temperature;BMP_pressure;BME280_temperature;BME280_humidity;BME280_pressure;Samples;Min_cycle;Max_cycle;Signal;HPM_P1;HPM_P2
2022/08/02 00:00:58;;;;;;;58.57;2.90;;;;;;;;;;5091767;28;20573;-66
2022/08/02 00:03:25;;;;;;;58.63;2.87;;;;;;;;;;5091873;28;20446;-66
2022/08/02 00:05:53;;;;;;;58.67;2.90;;;;;;;;;;5090355;28;20457;-66
2022/08/02 00:08:20;;;;;;;58.70;3.10;;;;;;;;;;5091675;28;20450;-66
2022/08/02 00:10:49;;;;;;;59.07;3.30;;;;;;;;;;5091627;28;20469;-66
2022/08/02 00:13:16;;;;;;;58.43;2.80;;;;;;;;;;5091308;28;20457;-66
2022/08/02 00:15:44;;;;;;;59.00;3.00;;;;;;;;;;5091784;28;20865;-66
2022/08/02 00:18:12;;;;;;;58.00;2.70;;;;;;;;;;5092425;28;20448;-66
2022/08/02 00:20:41;;;;;;;58.43;3.10;;;;;;;;;;5095384;28;20468;-66
2022/08/02 00:23:09;;;;;;;59.07;3.07;;;;;;;;;;5096000;28;20449;-66
2022/08/02 00:25:38;;;;;;;58.83;2.80;;;;;;;;;;5095883;28;20450;-66
2022/08/02 00:28:09;;;;;;;59.30;3.40;;;;;;;;;;5095927;28;20519;-66
2022/08/02 00:30:36;;;;;;;59.87;3.57;;;;;;;;;;5095362;28;20518;-66
2022/08/02 00:33:04;;;;;;;58.50;2.80;;;;;;;;;;5095503;28;20443;-66
2022/08/02 00:35:31;;;;;;;58.60;2.90;;;;;;;;;;5094362;28;20482;-66
2022/08/02 00:37:59;;;;;;;58.80;2.90;;;;;;;;;;5095354;28;20438;-66
2022/08/02 00:40:28;;;;;;;58.37;3.10;;;;;;;;;;5095170;28;20535;-66
2022/08/02 00:43:03;;;;;;;59.83;3.30;;;;;;;;;;5095388;28;20529;-66
2022/08/02 00:45:32;;;;;;;62.90;3.77;;;;;;;;;;5095247;28;20493;-66
2022/08/02 00:48:00;;;;;;;62.13;3.17;;;;;;;;;;5095220;28;20451;-66
2022/08/02 00:50:28;;;;;;;59.40;3.23;;;;;;;;;;5094937;28;20552;-66
2022/08/02 00:52:57;;;;;;;58.77;3.20;;;;;;;;;;5095244;28;20446;-66
2022/08/02 00:55:25;;;;;;;59.17;3.17;;;;;;;;;;5095653;28;20503;-66
2022/08/02 00:57:53;;;;;;;59.40;3.13;;;;;;;;;;5093716;28;20455;-66
2022/08/02 01:00:20;;;;;;;58.70;3.20;;;;;;;;;;5094652;28;20481;-66
2022/08/02 01:02:52;;;;;;;58.77;2.90;;;;;;;;;;5095425;28;20446;-66
2022/08/02 01:05:19;;;;;;;59.43;3.50;;;;;;;;;;5094948;28;20446;-66
2022/08/02 01:07:47;;;;;;;59.83;3.10;;;;;;;;;;5094698;28;20946;-66
2022/08/02 01:10:18;;;;;;;59.10;3.10;;;;;;;;;;5094592;28;20466;-66
2022/08/02 01:12:46;;;;;;;58.67;2.90;;;;;;;;;;5094710;28;20451;-66
2022/08/02 01:15:15;;;;;;;59.07;3.10;;;;;;;;;;5094987;28;20446;-66
2022/08/02 01:17:47;;;;;;;59.20;3.17;;;;;;;;;;5094763;28;20450;-66
2022/08/02 01:20:25;;;;;;;58.37;3.10;;;;;;;;;;5094408;28;20577;-66
2022/08/02 01:23:03;;;;;;;58.77;3.20;;;;;;;;;;5094519;28;20515;-66
2022/08/02 01:25:40;;;;;;;61.50;3.30;;;;;;;;;;5093355;28;20887;-66
2022/08/02 01:28:23;;;;;;;58.87;3.30;;;;;;;;;;5094574;28;20437;-66
2022/08/02 01:30:53;;;;;;;59.13;3.40;;;;;;;;;;5093453;28;20488;-66
2022/08/02 01:33:22;;;;;;;58.83;3.20;;;;;;;;;;5094502;28;20446;-66
2022/08/02 01:35:53;;;;;;;59.00;3.10;;;;;;;;;;5093398;28;20457;-66
2022/08/02 01:38:24;;;;;;;58.23;2.90;;;;;;;;;;5093791;28;20446;-66
2022/08/02 01:40:52;;;;;;;59.43;3.00;;;;;;;;;;5094189;28;20486;-66
2022/08/02 01:43:22;;;;;;;59.33;3.27;;;;;;;;;;5094413;28;20445;-66
2022/08/02 01:45:49;;;;;;;58.97;3.07;;;;;;;;;;5058506;28;20438;-66
2022/08/02 01:48:17;;;;;;;60.33;3.67;;;;;;;;;;5094026;28;20443;-66
2022/08/02 01:50:45;;;;;;;59.57;4.00;;;;;;;;;;5092473;28;20475;-66
2022/08/02 01:53:13;;;;;;;58.97;3.10;;;;;;;;;;5092752;28;20447;-66
2022/08/02 01:55:41;;;;;;;59.47;3.00;;;;;;;;;;5093920;28;20942;-66
2022/08/02 01:58:13;;;;;;;58.97;3.53;;;;;;;;;;5093852;28;20970;-66
2022/08/02 02:00:45;;;;;;;58.63;3.00;;;;;;;;;;5093597;28;20482;-66
2022/08/02 02:03:16;;;;;;;59.70;3.53;;;;;;;;;;5093876;28;20451;-66
2022/08/02 02:05:46;;;;;;;59.17;3.07;;;;;;;;;;5094081;28;20474;-66
2022/08/02 02:08:15;;;;;;;58.37;3.30;;;;;;;;;;5093631;28;20442;-66
2022/08/02 02:10:43;;;;;;;59.20;3.40;;;;;;;;;;5093509;28;20462;-66
2022/08/02 02:13:13;;;;;;;59.67;3.37;;;;;;;;;;5093727;28;20454;-66
2022/08/02 02:15:42;;;;;;;58.70;2.90;;;;;;;;;;5093557;28;20943;-66
2022/08/02 02:18:12;;;;;;;59.30;2.90;;;;;;;;;;5093460;28;20457;-66
2022/08/02 02:20:39;;;;;;;59.77;2.77;;;;;;;;;;5093162;28;20490;-66
2022/08/02 02:23:06;;;;;;;58.93;3.33;;;;;;;;;;5093633;28;20449;-66
2022/08/02 02:25:34;;;;;;;58.60;2.93;;;;;;;;;;5093472;28;20555;-66
2022/08/02 02:28:05;;;;;;;58.80;3.20;;;;;;;;;;5093321;28;20454;-66
2022/08/02 02:30:33;;;;;;;59.07;3.30;;;;;;;;;;5091747;28;20505;-66
2022/08/02 02:33:03;;;;;;;59.07;3.00;;;;;;;;;;5093517;28;20465;-66
2022/08/02 02:35:35;;;;;;;59.10;3.33;;;;;;;;;;5093186;28;20447;-66
2022/08/02 02:38:06;;;;;;;59.80;3.23;;;;;;;;;;5093269;28;20458;-66
2022/08/02 02:40:35;;;;;;;58.80;3.00;;;;;;;;;;5092982;28;20490;-66
2022/08/02 02:43:05;;;;;;;58.80;3.10;;;;;;;;;;5092414;28;20824;-66
2022/08/02 02:45:33;;;;;;;59.20;3.20;;;;;;;;;;5092938;28;20453;-66
2022/08/02 02:48:03;;;;;;;59.50;3.60;;;;;;;;;;5092882;28;20450;-66
2022/08/02 02:50:33;;;;;;;60.90;3.60;;;;;;;;;;5092657;28;20474;-66
2022/08/02 02:53:00;;;;;;;58.57;3.20;;;;;;;;;;5091614;28;20525;-66
2022/08/02 02:55:29;;;;;;;59.07;3.10;;;;;;;;;;5091600;28;20537;-66
2022/08/02 02:57:59;;;;;;;58.87;3.20;;;;;;;;;;5092878;28;20878;-66
2022/08/02 03:03:09;;;;;;;59.60;3.57;;;;;;;;;;5092513;28;20427;-66
2022/08/02 03:05:38;;;;;;;58.80;3.20;;;;;;;;;;5092751;28;20449;-66
2022/08/02 03:08:05;;;;;;;59.00;3.13;;;;;;;;;;5092545;28;20890;-66
2022/08/02 03:10:36;;;;;;;59.07;2.90;;;;;;;;;;5092470;28;20494;-66
2022/08/02 03:13:03;;;;;;;58.97;3.13;;;;;;;;;;5092689;28;20525;-66
2022/08/02 03:15:30;;;;;;;59.17;2.90;;;;;;;;;;5092531;28;20941;-66
2022/08/02 03:17:58;;;;;;;59.60;3.10;;;;;;;;;;5092458;28;20533;-66
2022/08/02 03:20:25;;;;;;;59.37;3.57;;;;;;;;;;5091966;28;20894;-66
2022/08/02 03:22:53;;;;;;;58.80;3.27;;;;;;;;;;5092409;28;20453;-66
2022/08/02 03:25:21;;;;;;;59.47;3.43;;;;;;;;;;5092600;28;20446;-66
2022/08/02 03:27:50;;;;;;;59.37;3.37;;;;;;;;;;5092608;28;20446;-67
2022/08/02 03:30:17;;;;;;;59.93;3.33;;;;;;;;;;5091954;28;20466;-66
2022/08/02 03:32:48;;;;;;;59.57;3.47;;;;;;;;;;5092206;28;20446;-66
2022/08/02 03:35:17;;;;;;;58.67;3.23;;;;;;;;;;5090917;28;20451;-66
2022/08/02 03:37:44;;;;;;;58.77;3.40;;;;;;;;;;5092338;28;20451;-66
2022/08/02 03:40:16;;;;;;;59.00;3.20;;;;;;;;;;5091707;28;20493;-66
2022/08/02 03:42:43;;;;;;;59.47;3.03;;;;;;;;;;5092041;28;20451;-66
2022/08/02 03:45:12;;;;;;;59.30;3.20;;;;;;;;;;5092133;28;20453;-66
2022/08/02 03:47:40;;;;;;;59.00;3.00;;;;;;;;;;5091940;28;20457;-66
2022/08/02 03:50:08;;;;;;;59.50;3.50;;;;;;;;;;5091525;28;20476;-66
2022/08/02 03:52:36;;;;;;;59.10;3.23;;;;;;;;;;5090553;28;20473;-66
2022/08/02 03:55:04;;;;;;;58.90;3.10;;;;;;;;;;5091939;28;20446;-66
2022/08/02 03:57:32;;;;;;;59.63;3.63;;;;;;;;;;5091463;28;20452;-66
2022/08/02 04:00:00;;;;;;;59.17;3.30;;;;;;;;;;5091345;28;20490;-66
2022/08/02 04:02:27;;;;;;;59.70;3.40;;;;;;;;;;5090636;28;20870;-66
2022/08/02 04:04:55;;;;;;;59.47;3.57;;;;;;;;;;5092039;28;20963;-66
2022/08/02 04:07:22;;;;;;;59.50;3.13;;;;;;;;;;5091981;28;20446;-66
2022/08/02 04:09:50;;;;;;;59.33;3.53;;;;;;;;;;5091535;28;20446;-66
2022/08/02 04:12:18;;;;;;;59.10;3.50;;;;;;;;;;5091725;28;20442;-66
2022/08/02 04:14:46;;;;;;;59.00;3.23;;;;;;;;;;5091594;28;20961;-66
2022/08/02 04:17:21;;;;;;;59.20;3.60;;;;;;;;;;5091917;28;20449;-66
2022/08/02 04:19:52;;;;;;;58.80;2.90;;;;;;;;;;5091321;28;20554;-66
2022/08/02 04:22:22;;;;;;;59.50;3.60;;;;;;;;;;5091840;28;20451;-66
2022/08/02 04:24:50;;;;;;;59.67;3.00;;;;;;;;;;5091304;28;20822;-66
2022/08/02 04:27:18;;;;;;;58.97;3.30;;;;;;;;;;5091597;28;20453;-66
2022/08/02 04:29:47;;;;;;;58.87;3.03;;;;;;;;;;5091452;28;20454;-66
2022/08/02 04:32:15;;;;;;;59.60;3.40;;;;;;;;;;5091566;28;20538;-66
2022/08/02 04:34:42;;;;;;;59.10;3.27;;;;;;;;;;5091577;28;20518;-66
2022/08/02 04:37:11;;;;;;;58.67;3.47;;;;;;;;;;5092161;28;20808;-66
2022/08/02 04:39:38;;;;;;;59.90;3.17;;;;;;;;;;5089816;28;20955;-66
2022/08/02 04:42:07;;;;;;;59.50;3.20;;;;;;;;;;5091184;28;20550;-66
2022/08/02 04:44:36;;;;;;;59.53;3.80;;;;;;;;;;5091691;28;20450;-66
2022/08/02 04:47:07;;;;;;;60.90;3.70;;;;;;;;;;5091465;28;20534;-66
2022/08/02 04:49:35;;;;;;;59.10;3.33;;;;;;;;;;5091115;28;20822;-66
2022/08/02 04:52:02;;;;;;;59.07;3.30;;;;;;;;;;5090100;28;20477;-66
2022/08/02 04:54:30;;;;;;;59.00;3.53;;;;;;;;;;5091311;28;20449;-66
2022/08/02 04:56:57;;;;;;;59.37;3.20;;;;;;;;;;5091602;28;20452;-66
2022/08/02 04:59:24;;;;;;;59.10;3.10;;;;;;;;;;5091284;28;20442;-66
2022/08/02 05:01:51;;;;;;;59.10;3.30;;;;;;;;;;5091285;28;20955;-66
2022/08/02 05:04:20;;;;;;;59.93;4.10;;;;;;;;;;5091362;28;20449;-66
2022/08/02 05:06:49;;;;;;;58.83;3.30;;;;;;;;;;5093229;28;20449;-66
2022/08/02 05:09:17;;;;;;;59.60;3.50;;;;;;;;;;5094687;28;20457;-66
2022/08/02 05:11:45;;;;;;;58.80;3.03;;;;;;;;;;5094775;28;20462;-66
2022/08/02 05:14:12;;;;;;;59.67;3.60;;;;;;;;;;5094965;28;20481;-66
2022/08/02 05:16:39;;;;;;;58.73;3.20;;;;;;;;;;5094498;28;20442;-66
2022/08/02 05:19:06;;;;;;;58.60;3.10;;;;;;;;;;5094389;28;20453;-66
2022/08/02 05:21:35;;;;;;;59.30;3.40;;;;;;;;;;5094765;28;20515;-66
2022/08/02 05:24:03;;;;;;;59.30;3.33;;;;;;;;;;5094587;28;20989;-66
2022/08/02 05:26:30;;;;;;;58.77;3.23;;;;;;;;;;5094962;28;20450;-66
2022/08/02 05:28:57;;;;;;;59.07;3.67;;;;;;;;;;5094406;28;20529;-66
2022/08/02 05:31:24;;;;;;;62.63;4.20;;;;;;;;;;5094422;28;20986;-66
2022/08/02 05:33:51;;;;;;;58.67;3.10;;;;;;;;;;5094337;28;20449;-66
2022/08/02 05:36:19;;;;;;;58.97;3.37;;;;;;;;;;5094469;28;20450;-66
2022/08/02 05:38:49;;;;;;;59.20;3.67;;;;;;;;;;5093959;28;20460;-67
2022/08/02 05:41:16;;;;;;;59.00;3.40;;;;;;;;;;5094234;28;20555;-66
2022/08/02 05:43:44;;;;;;;59.37;3.43;;;;;;;;;;5094243;28;20452;-66
2022/08/02 05:46:11;;;;;;;58.90;3.30;;;;;;;;;;5094477;28;20816;-66
2022/08/02 05:48:39;;;;;;;58.97;3.67;;;;;;;;;;5093856;28;20442;-66
2022/08/02 05:51:09;;;;;;;58.47;3.17;;;;;;;;;;5094412;28;20513;-66
2022/08/02 05:53:38;;;;;;;59.10;3.20;;;;;;;;;;5094272;28;20442;-66
2022/08/02 05:56:11;;;;;;;59.57;3.90;;;;;;;;;;5094059;28;20446;-66
2022/08/02 05:58:44;;;;;;;58.20;3.10;;;;;;;;;;5094290;28;20510;-66
2022/08/02 06:01:14;;;;;;;61.43;4.00;;;;;;;;;;5094086;28;20486;-66
2022/08/02 06:03:45;;;;;;;59.63;3.23;;;;;;;;;;5094054;28;20478;-67
2022/08/02 06:06:16;;;;;;;58.70;3.17;;;;;;;;;;5094227;28;20509;-66
2022/08/02 06:08:45;;;;;;;58.57;3.00;;;;;;;;;;5093552;28;20451;-66
2022/08/02 06:11:14;;;;;;;60.57;3.53;;;;;;;;;;5093926;28;20464;-66
2022/08/02 06:13:42;;;;;;;59.30;3.40;;;;;;;;;;5093766;28;20449;-66
2022/08/02 06:16:09;;;;;;;58.90;3.40;;;;;;;;;;5093380;28;20458;-66
2022/08/02 06:18:37;;;;;;;58.77;3.23;;;;;;;;;;5093036;28;20503;-66
2022/08/02 06:21:07;;;;;;;59.50;3.53;;;;;;;;;;5093376;28;20486;-66
2022/08/02 06:23:35;;;;;;;58.90;3.40;;;;;;;;;;5093598;28;20455;-66
2022/08/02 06:26:03;;;;;;;58.97;3.60;;;;;;;;;;5093698;28;20482;-67
2022/08/02 06:28:36;;;;;;;59.13;3.70;;;;;;;;;;5092557;28;20462;-67
2022/08/02 06:31:06;;;;;;;58.90;3.77;;;;;;;;;;5093483;28;20462;-67
2022/08/02 06:33:33;;;;;;;63.37;3.67;;;;;;;;;;5093352;28;20446;-67
2022/08/02 06:36:05;;;;;;;59.50;3.97;;;;;;;;;;5092061;28;20539;-67
2022/08/02 06:38:34;;;;;;;60.20;3.70;;;;;;;;;;5092892;28;20529;-67
2022/08/02 06:41:03;;;;;;;59.10;3.73;;;;;;;;;;5093487;28;20867;-67
2022/08/02 06:43:35;;;;;;;58.97;3.53;;;;;;;;;;5093294;28;20462;-67
2022/08/02 06:46:03;;;;;;;59.67;3.70;;;;;;;;;;5093203;28;20526;-67
2022/08/02 06:48:34;;;;;;;59.20;3.63;;;;;;;;;;5092929;28;20446;-67
2022/08/02 06:51:02;;;;;;;60.10;3.47;;;;;;;;;;5091587;28;20483;-67
2022/08/02 06:53:29;;;;;;;58.93;3.77;;;;;;;;;;5093089;28;20816;-67
2022/08/02 06:55:57;;;;;;;59.10;3.50;;;;;;;;;;5093010;28;20452;-67
2022/08/02 06:58:24;;;;;;;60.17;3.97;;;;;;;;;;5092927;28;20465;-67
2022/08/02 07:00:53;;;;;;;59.57;3.73;;;;;;;;;;5092431;28;20492;-67
2022/08/02 07:03:20;;;;;;;59.60;3.60;;;;;;;;;;5092716;28;20449;-67
2022/08/02 07:05:48;;;;;;;59.00;3.40;;;;;;;;;;5092949;28;20459;-67
2022/08/02 07:08:17;;;;;;;59.47;3.63;;;;;;;;;;5092816;28;20803;-67
2022/08/02 07:10:45;;;;;;;59.20;3.53;;;;;;;;;;5092614;28;20471;-67
2022/08/02 07:13:12;;;;;;;61.20;4.13;;;;;;;;;;5092807;28;20449;-67
2022/08/02 07:15:40;;;;;;;61.90;4.10;;;;;;;;;;5092528;28;20534;-67
2022/08/02 07:18:13;;;;;;;60.50;4.33;;;;;;;;;;5092424;28;20444;-67
2022/08/02 07:20:40;;;;;;;59.60;3.90;;;;;;;;;;5107035;28;20476;-67
2022/08/02 07:23:10;;;;;;;59.77;3.90;;;;;;;;;;5112656;28;20443;-67
2022/08/02 07:25:37;;;;;;;59.37;3.50;;;;;;;;;;5112674;28;20494;-67
2022/08/02 07:28:04;;;;;;;58.93;3.73;;;;;;;;;;5112035;28;20829;-69
2022/08/02 07:30:33;;;;;;;60.30;4.40;;;;;;;;;;5111944;28;20464;-68
2022/08/02 07:33:01;;;;;;;59.23;3.40;;;;;;;;;;5112645;28;20527;-67
2022/08/02 07:35:30;;;;;;;59.60;3.67;;;;;;;;;;5112568;28;20471;-68
2022/08/02 07:38:00;;;;;;;59.37;3.70;;;;;;;;;;5111126;28;20449;-67
2022/08/02 07:40:27;;;;;;;59.07;3.43;;;;;;;;;;5112151;28;20464;-67
2022/08/02 07:42:55;;;;;;;59.73;4.30;;;;;;;;;;5112153;28;21008;-67
2022/08/02 07:45:23;;;;;;;59.90;4.30;;;;;;;;;;5112363;28;20509;-68
2022/08/02 07:47:50;;;;;;;60.67;4.30;;;;;;;;;;5112248;28;20443;-68
2022/08/02 07:50:18;;;;;;;59.53;4.27;;;;;;;;;;5111726;28;20826;-67
2022/08/02 07:52:47;;;;;;;59.50;4.47;;;;;;;;;;5112518;28;20451;-67
2022/08/02 07:55:16;;;;;;;61.10;3.87;;;;;;;;;;5112222;28;20446;-67
2022/08/02 07:57:43;;;;;;;61.00;3.30;;;;;;;;;;5111963;28;20493;-67
2022/08/02 08:00:12;;;;;;;64.37;4.37;;;;;;;;;;5105767;28;20463;-69
2022/08/02 08:02:39;;;;;;;60.90;4.40;;;;;;;;;;5091857;28;20524;-67
2022/08/02 08:05:07;;;;;;;59.77;4.00;;;;;;;;;;5100958;28;20492;-67
2022/08/02 08:07:35;;;;;;;61.33;4.93;;;;;;;;;;5103080;28;20456;-67
2022/08/02 08:10:03;;;;;;;59.47;3.90;;;;;;;;;;5102832;28;20457;-67
2022/08/02 08:12:31;;;;;;;59.40;3.77;;;;;;;;;;5112201;28;20445;-67
2022/08/02 08:14:58;;;;;;;59.20;3.50;;;;;;;;;;5111992;28;21102;-65
2022/08/02 08:17:26;;;;;;;60.13;4.00;;;;;;;;;;5111950;28;20452;-65
2022/08/02 08:19:53;;;;;;;60.73;4.33;;;;;;;;;;5111849;28;20519;-67
2022/08/02 08:22:22;;;;;;;59.70;4.67;;;;;;;;;;5111898;28;20560;-68
2022/08/02 08:24:49;;;;;;;59.60;3.80;;;;;;;;;;5111876;28;20445;-68
2022/08/02 08:27:21;;;;;;;59.23;4.10;;;;;;;;;;5111904;28;20445;-67
2022/08/02 08:29:49;;;;;;;59.10;3.70;;;;;;;;;;5111603;28;20445;-65
2022/08/02 08:32:17;;;;;;;64.30;3.77;;;;;;;;;;5112040;28;20453;-65
2022/08/02 08:34:45;;;;;;;59.23;3.47;;;;;;;;;;5111791;28;20446;-65
2022/08/02 08:37:12;;;;;;;59.20;3.50;;;;;;;;;;5111746;28;20453;-67
2022/08/02 08:39:39;;;;;;;59.33;3.80;;;;;;;;;;5110692;28;20471;-67
2022/08/02 08:42:07;;;;;;;61.13;4.03;;;;;;;;;;5115497;28;20976;-64
2022/08/02 08:44:38;;;;;;;59.40;4.03;;;;;;;;;;5115668;28;20488;-65
2022/08/02 08:47:06;;;;;;;59.10;3.73;;;;;;;;;;5115653;28;20536;-65
2022/08/02 08:49:34;;;;;;;59.00;3.87;;;;;;;;;;5115144;28;20543;-65
2022/08/02 08:52:06;;;;;;;59.47;3.87;;;;;;;;;;5115727;28;20552;-65
2022/08/02 08:54:34;;;;;;;60.00;4.73;;;;;;;;;;5115606;28;20898;-67
2022/08/02 08:57:05;;;;;;;59.73;4.27;;;;;;;;;;5115679;28;20449;-65
2022/08/02 08:59:33;;;;;;;59.90;4.53;;;;;;;;;;5115282;28;21004;-66
2022/08/02 09:02:02;;;;;;;60.30;4.27;;;;;;;;;;5115239;28;20521;-66
2022/08/02 09:04:30;;;;;;;60.90;4.20;;;;;;;;;;5115728;28;20458;-66
2022/08/02 09:06:57;;;;;;;59.70;4.00;;;;;;;;;;5115549;27;20452;-65
2022/08/02 09:09:25;;;;;;;59.10;3.50;;;;;;;;;;5115339;28;20541;-65
2022/08/02 09:11:52;;;;;;;58.30;3.00;;;;;;;;;;5114975;28;20556;-66
2022/08/02 09:14:31;;;;;;;59.00;3.57;;;;;;;;;;5115292;28;20472;-66
2022/08/02 09:17:08;;;;;;;59.53;4.27;;;;;;;;;;5115083;28;21175;-65
2022/08/02 09:19:35;;;;;;;59.57;3.40;;;;;;;;;;5114660;28;20886;-65
2022/08/02 09:22:05;;;;;;;63.90;4.35;;;;;;;;;;5114263;28;20450;-65
2022/08/02 09:24:42;;;;;;;58.80;3.33;;;;;;;;;;5114152;28;20273;-66
2022/08/02 09:27:11;;;;;;;61.00;3.87;;;;;;;;;;5114703;28;20433;-66
2022/08/02 09:29:39;;;;;;;61.80;4.30;;;;;;;;;;5114144;28;20977;-66
2022/08/02 09:32:08;;;;;;;59.97;3.90;;;;;;;;;;5114279;28;20461;-66
2022/08/02 09:34:45;;;;;;;59.90;4.60;;;;;;;;;;5114136;28;20449;-66
2022/08/02 09:37:23;;;;;;;59.53;3.90;;;;;;;;;;5114348;28;20827;-66
2022/08/02 09:39:50;;;;;;;59.20;3.67;;;;;;;;;;5113790;28;20441;-66
2022/08/02 09:42:20;;;;;;;60.10;4.07;;;;;;;;;;5114733;27;20914;-66
2022/08/02 09:44:54;;;;;;;58.90;3.40;;;;;;;;;;5114560;28;20870;-67
2022/08/02 09:47:25;;;;;;;58.87;3.17;;;;;;;;;;5114359;28;20446;-68
2022/08/02 09:49:55;;;;;;;58.87;3.40;;;;;;;;;;5112682;28;20473;-68
2022/08/02 09:52:24;;;;;;;58.67;3.30;;;;;;;;;;5114219;28;20455;-68
2022/08/02 09:54:54;;;;;;;58.97;3.00;;;;;;;;;;5114703;28;20679;-66
2022/08/02 09:57:28;;;;;;;61.50;3.93;;;;;;;;;;5114484;28;20452;-66
2022/08/02 09:59:56;;;;;;;59.00;3.60;;;;;;;;;;5113835;28;20933;-66
2022/08/02 10:02:25;;;;;;;58.77;3.23;;;;;;;;;;5114133;28;20478;-67
2022/08/02 10:04:54;;;;;;;59.30;3.30;;;;;;;;;;5112525;28;20819;-68
2022/08/02 10:07:22;;;;;;;63.83;3.40;;;;;;;;;;5113884;28;20445;-66
2022/08/02 10:09:49;;;;;;;58.67;3.27;;;;;;;;;;5113561;28;20452;-67
2022/08/02 10:12:17;;;;;;;58.67;2.93;;;;;;;;;;5114051;28;20499;-66
2022/08/02 10:14:47;;;;;;;61.00;3.90;;;;;;;;;;5113912;27;20542;-68
2022/08/02 10:17:15;;;;;;;58.40;2.97;;;;;;;;;;5113814;28;20434;-68
2022/08/02 10:19:47;;;;;;;59.47;4.17;;;;;;;;;;5113456;28;20448;-66
2022/08/02 10:22:15;;;;;;;58.77;3.00;;;;;;;;;;5113939;28;20835;-66
2022/08/02 10:24:42;;;;;;;59.53;3.90;;;;;;;;;;5113515;28;20957;-66
2022/08/02 10:27:15;;;;;;;58.87;3.80;;;;;;;;;;5113525;28;20533;-66
2022/08/02 10:29:43;;;;;;;58.97;3.53;;;;;;;;;;5113228;28;20453;-66
2022/08/02 10:32:11;;;;;;;58.77;3.40;;;;;;;;;;5113517;28;20985;-66
2022/08/02 10:34:44;;;;;;;59.67;3.47;;;;;;;;;;5113671;28;20445;-66
2022/08/02 10:37:17;;;;;;;58.50;3.17;;;;;;;;;;5113238;28;20448;-65
2022/08/02 10:39:46;;;;;;;58.73;3.20;;;;;;;;;;5113083;28;20437;-65
2022/08/02 10:42:36;;;;;;;58.80;3.17;;;;;;;;;;5113278;28;20830;-65
2022/08/02 10:45:10;;;;;;;58.17;2.77;;;;;;;;;;5113204;28;20860;-65
2022/08/02 10:47:38;;;;;;;58.10;2.77;;;;;;;;;;5113188;28;20938;-64
2022/08/02 10:50:08;;;;;;;58.63;2.90;;;;;;;;;;5112438;27;20484;-65
2022/08/02 10:52:37;;;;;;;58.37;3.40;;;;;;;;;;5111887;28;20446;-65
2022/08/02 10:55:10;;;;;;;58.50;3.30;;;;;;;;;;5113459;28;20473;-65
2022/08/02 10:57:43;;;;;;;58.40;3.20;;;;;;;;;;5111230;28;20540;-66
2022/08/02 11:02:57;;;;;;;59.17;2.40;;;;;;;;;;5112125;28;20558;-66
2022/08/02 11:05:29;;;;;;;59.13;3.33;;;;;;;;;;5077431;28;20441;-66
2022/08/02 11:08:23;;;;;;;57.37;2.80;;;;;;;;;;5111509;28;20449;-66
2022/08/02 11:10:55;;;;;;;57.30;2.70;;;;;;;;;;5112384;28;20477;-66
2022/08/02 11:13:25;;;;;;;57.60;3.13;;;;;;;;;;5112446;28;20957;-67
2022/08/02 11:16:00;;;;;;;57.40;2.90;;;;;;;;;;5113178;28;20449;-66
2022/08/02 11:18:47;;;;;;;56.90;2.53;;;;;;;;;;5107598;28;20453;-67
2022/08/02 11:21:30;;;;;;;57.70;2.80;;;;;;;;;;5112836;28;20544;-67
2022/08/02 11:24:15;;;;;;;57.40;3.10;;;;;;;;;;5112533;28;20489;-64
2022/08/02 11:26:45;;;;;;;57.40;2.73;;;;;;;;;;5111507;28;20535;-66
2022/08/02 11:31:55;;;;;;;57.13;2.67;;;;;;;;;;5091844;28;20494;-66
2022/08/02 11:34:26;;;;;;;57.00;2.87;;;;;;;;;;5091981;28;20486;-66
2022/08/02 11:36:55;;;;;;;56.83;2.70;;;;;;;;;;5091980;28;20796;-66
2022/08/02 11:39:27;;;;;;;57.00;2.70;;;;;;;;;;5091512;28;20822;-66
2022/08/02 11:45:07;;;;;;;57.07;2.67;;;;;;;;;;5092316;28;20865;-66
2022/08/02 11:47:41;;;;;;;57.10;2.60;;;;;;;;;;5090389;28;20853;-66
2022/08/02 11:50:09;;;;;;;56.90;2.83;;;;;;;;;;5095714;28;20469;-66
2022/08/02 11:52:39;;;;;;;57.07;2.50;;;;;;;;;;5112065;28;20499;-66
2022/08/02 11:55:10;;;;;;;56.90;2.40;;;;;;;;;;5110144;28;20448;-66
2022/08/02 11:57:40;;;;;;;56.77;2.30;;;;;;;;;;5110697;28;20524;-66
2022/08/02 12:00:16;;;;;;;57.33;2.77;;;;;;;;;;5111922;28;20817;-66
2022/08/02 12:02:49;;;;;;;57.57;2.80;;;;;;;;;;5111662;28;20842;-66
2022/08/02 12:05:19;;;;;;;57.10;3.00;;;;;;;;;;5109946;28;20446;-66
2022/08/02 12:07:51;;;;;;;56.83;2.73;;;;;;;;;;5111803;28;20475;-66
2022/08/02 12:10:20;;;;;;;57.20;2.90;;;;;;;;;;5111888;28;20466;-66
2022/08/02 12:13:05;;;;;;;57.50;2.60;;;;;;;;;;5112367;28;20519;-65
2022/08/02 12:15:35;;;;;;;57.00;2.90;;;;;;;;;;5092560;28;20531;-66
2022/08/02 12:20:49;;;;;;;58.20;3.30;;;;;;;;;;5093384;28;20449;-66
2022/08/02 12:23:19;;;;;;;57.00;2.77;;;;;;;;;;5094419;28;20478;-66
2022/08/02 12:26:04;;;;;;;57.40;2.83;;;;;;;;;;5095812;28;20512;-66
2022/08/02 12:28:37;;;;;;;56.87;2.80;;;;;;;;;;5094610;28;20499;-66
2022/08/02 12:31:05;;;;;;;57.30;2.80;;;;;;;;;;5098686;28;20492;-66
2022/08/02 12:33:46;;;;;;;56.90;2.80;;;;;;;;;;5114536;28;20810;-66
2022/08/02 12:36:15;;;;;;;57.00;2.90;;;;;;;;;;5114870;27;20453;-66
2022/08/02 12:38:58;;;;;;;55.80;2.90;;;;;;;;;;5115758;28;20529;-66
2022/08/02 12:41:26;;;;;;;56.90;2.60;;;;;;;;;;5116013;28;20548;-66
2022/08/02 12:43:56;;;;;;;57.27;3.03;;;;;;;;;;5115810;28;20530;-66
2022/08/02 12:46:34;;;;;;;57.00;2.67;;;;;;;;;;5115526;28;20960;-66
2022/08/02 12:49:01;;;;;;;57.17;2.57;;;;;;;;;;5115377;28;20449;-66
2022/08/02 12:51:32;;;;;;;57.77;3.00;;;;;;;;;;5115384;28;20469;-66
2022/08/02 12:54:12;;;;;;;56.60;2.43;;;;;;;;;;5116058;28;20532;-66
2022/08/02 12:56:39;;;;;;;57.37;2.47;;;;;;;;;;5115714;28;20457;-65
2022/08/02 12:59:09;;;;;;;57.07;2.47;;;;;;;;;;5114552;28;20468;-65
2022/08/02 13:01:36;;;;;;;57.27;2.93;;;;;;;;;;5115372;28;20461;-66
2022/08/02 13:04:04;;;;;;;57.40;3.20;;;;;;;;;;5103831;28;20482;-66
2022/08/02 13:06:34;;;;;;;56.90;2.70;;;;;;;;;;5093596;28;20482;-66
2022/08/02 13:09:01;;;;;;;57.10;2.50;;;;;;;;;;5094556;28;20450;-66
2022/08/02 13:11:30;;;;;;;56.80;2.70;;;;;;;;;;5094804;28;20569;-68
2022/08/02 13:13:58;;;;;;;57.37;2.60;;;;;;;;;;5094726;28;20465;-69
2022/08/02 13:16:30;;;;;;;56.37;2.20;;;;;;;;;;5094921;28;20446;-68
2022/08/02 13:22:01;;;;;;;56.00;2.00;;;;;;;;;;5099531;28;20789;-67
2022/08/02 13:24:30;;;;;;;56.13;2.50;;;;;;;;;;5114915;28;20848;-68
2022/08/02 13:26:58;;;;;;;56.27;2.70;;;;;;;;;;5113756;28;20446;-68
2022/08/02 13:29:25;;;;;;;55.90;2.90;;;;;;;;;;5114104;28;20449;-66
2022/08/02 13:31:56;;;;;;;56.27;2.87;;;;;;;;;;5114695;28;20461;-66
2022/08/02 13:34:27;;;;;;;56.20;2.73;;;;;;;;;;5115008;28;20444;-66
2022/08/02 13:36:54;;;;;;;56.20;2.23;;;;;;;;;;5114817;28;20445;-66
2022/08/02 13:39:23;;;;;;;57.90;2.90;;;;;;;;;;5114414;28;20442;-66
2022/08/02 13:41:50;;;;;;;56.70;2.60;;;;;;;;;;5114506;28;20582;-67
2022/08/02 13:44:17;;;;;;;56.23;2.40;;;;;;;;;;5114391;28;20474;-67
2022/08/02 13:46:45;;;;;;;56.47;2.37;;;;;;;;;;5114544;27;20445;-66
2022/08/02 13:49:13;;;;;;;56.00;2.57;;;;;;;;;;5114164;28;20464;-66
2022/08/02 13:51:40;;;;;;;56.10;2.33;;;;;;;;;;5114340;28;20497;-65
2022/08/02 13:54:08;;;;;;;57.20;2.63;;;;;;;;;;5114533;28;20441;-66
2022/08/02 13:56:35;;;;;;;56.97;2.70;;;;;;;;;;5102705;28;20446;-66
2022/08/02 13:59:03;;;;;;;57.17;2.50;;;;;;;;;;5092637;28;20837;-66
2022/08/02 14:01:31;;;;;;;57.03;2.83;;;;;;;;;;5093743;28;20462;-66
2022/08/02 14:03:59;;;;;;;56.77;2.50;;;;;;;;;;5093859;28;20514;-66
2022/08/02 14:06:28;;;;;;;57.00;2.50;;;;;;;;;;5093706;28;20830;-66
2022/08/02 14:08:55;;;;;;;57.30;2.50;;;;;;;;;;5093203;28;20447;-66
2022/08/02 14:11:23;;;;;;;56.97;2.60;;;;;;;;;;5091815;28;20592;-66
2022/08/02 14:13:50;;;;;;;57.17;2.47;;;;;;;;;;5093866;28;20537;-66
2022/08/02 14:16:17;;;;;;;57.17;2.40;;;;;;;;;;5093754;28;20446;-66
2022/08/02 14:18:45;;;;;;;56.90;2.53;;;;;;;;;;5093113;28;20465;-66
2022/08/02 14:21:13;;;;;;;57.17;2.33;;;;;;;;;;5093386;28;20470;-66
2022/08/02 14:23:42;;;;;;;57.00;2.27;;;;;;;;;;5093245;28;20478;-66
2022/08/02 14:26:09;;;;;;;57.30;2.40;;;;;;;;;;5093729;28;20454;-66
2022/08/02 14:28:36;;;;;;;56.77;2.30;;;;;;;;;;5092628;28;20447;-66
2022/08/02 14:31:04;;;;;;;56.90;2.40;;;;;;;;;;5092940;28;20462;-66
2022/08/02 14:33:31;;;;;;;56.97;2.10;;;;;;;;;;5093196;28;20442;-67
2022/08/02 14:35:58;;;;;;;56.90;2.60;;;;;;;;;;5093654;28;20442;-66
2022/08/02 14:38:27;;;;;;;57.90;2.47;;;;;;;;;;5092611;28;20969;-66
2022/08/02 14:40:56;;;;;;;56.77;2.20;;;;;;;;;;5092810;28;20478;-66
2022/08/02 14:46:08;;;;;;;57.30;2.60;;;;;;;;;;5093056;28;20505;-66
2022/08/02 14:48:35;;;;;;;57.30;2.60;;;;;;;;;;5092445;28;20832;-65
2022/08/02 14:51:03;;;;;;;57.07;2.20;;;;;;;;;;5092425;28;20474;-66
2022/08/02 14:53:30;;;;;;;57.03;2.40;;;;;;;;;;5092801;28;20997;-66
2022/08/02 14:56:01;;;;;;;56.90;2.07;;;;;;;;;;5092867;28;20456;-66
2022/08/02 14:58:29;;;;;;;57.07;2.43;;;;;;;;;;5092446;28;20439;-66
2022/08/02 15:00:56;;;;;;;57.30;2.43;;;;;;;;;;5091132;28;20557;-66
2022/08/02 15:03:24;;;;;;;57.00;2.13;;;;;;;;;;5091948;28;20482;-66